Time;durP1;ratioP1;P1;durP2;ratioP2;P2;SDS_P1;SDS_P2;PMS_P1;PMS_P2;Temp;Humidity;BMP_temperature;BMP_pressure;BME280_temperature;BME280_humidity;BME280_pressure;Samples;Min_cycle;Max_cycle;Signal;HPM_P1;HPM_P2
2023/03/06 00:00:19;;;;;;;20.67;13.37;;;9.80;49.70;;;;;;5002249;28;20527;-47
2023/03/06 00:02:45;;;;;;;22.37;13.70;;;9.90;49.50;;;;;;4998511;28;20233;-48
2023/03/06 00:05:12;;;;;;;20.87;14.03;;;9.90;49.50;;;;;;5008696;28;20900;-47
2023/03/06 00:07:38;;;;;;;22.40;14.33;;;9.90;49.70;;;;;;5008108;28;20225;-47
2023/03/06 00:10:03;;;;;;;21.63;15.10;;;9.80;49.80;;;;;;5008146;28;20473;-50
2023/03/06 00:12:29;;;;;;;29.40;15.40;;;9.80;50.20;;;;;;5008108;28;20264;-47
2023/03/06 00:14:55;;;;;;;30.37;16.10;;;9.80;50.20;;;;;;5007389;28;20204;-48
2023/03/06 00:17:20;;;;;;;20.90;15.40;;;9.70;50.30;;;;;;5005755;28;20198;-48
2023/03/06 00:19:46;;;;;;;27.87;16.27;;;9.70;50.60;;;;;;5005908;28;20202;-47
2023/03/06 00:22:13;;;;;;;30.40;15.53;;;9.80;50.60;;;;;;5003110;28;20427;-48
2023/03/06 00:24:39;;;;;;;23.13;15.13;;;9.60;51.10;;;;;;4995420;28;20286;-50
2023/03/06 00:27:05;;;;;;;19.90;14.57;;;9.60;51.10;;;;;;4992676;28;20437;-49
2023/03/06 00:29:31;;;;;;;22.17;15.87;;;9.70;50.90;;;;;;4996263;28;20511;-49
2023/03/06 00:31:56;;;;;;;22.10;15.30;;;9.70;50.90;;;;;;4994704;28;20202;-48
2023/03/06 00:34:22;;;;;;;26.93;14.87;;;9.80;50.80;;;;;;4994821;28;20277;-47
2023/03/06 00:36:48;;;;;;;24.80;15.37;;;9.80;50.60;;;;;;4998081;28;20372;-48
2023/03/06 00:39:13;;;;;;;24.23;15.70;;;9.80;50.60;;;;;;5005946;28;20202;-47
2023/03/06 00:41:39;;;;;;;25.70;15.90;;;9.80;50.60;;;;;;4995167;28;20257;-50
2023/03/06 00:44:05;;;;;;;24.87;15.07;;;9.80;50.50;;;;;;4995495;28;20324;-50
2023/03/06 00:46:30;;;;;;;28.90;16.00;;;9.80;50.50;;;;;;4998062;28;20222;-49
2023/03/06 00:48:56;;;;;;;22.87;15.20;;;9.80;50.40;;;;;;4992971;28;20206;-50
2023/03/06 00:51:21;;;;;;;25.30;14.30;;;9.90;50.40;;;;;;4998230;28;20202;-51
2023/03/06 00:53:47;;;;;;;23.20;14.20;;;9.90;50.30;;;;;;5007464;28;20354;-50
2023/03/06 00:56:13;;;;;;;22.97;14.83;;;9.90;50.10;;;;;;4998922;28;20194;-48
2023/03/06 00:58:38;;;;;;;21.77;13.80;;;9.90;50.00;;;;;;5009995;28;22239;-47
2023/03/06 01:01:04;;;;;;;21.27;14.30;;;9.90;50.10;;;;;;5006294;28;20747;-47
2023/03/06 01:03:30;;;;;;;24.33;14.67;;;9.90;50.10;;;;;;5005938;28;20267;-50
2023/03/06 01:05:55;;;;;;;22.03;13.73;;;9.90;49.90;;;;;;5002076;28;20229;-48
2023/03/06 01:08:21;;;;;;;24.33;14.80;;;9.90;49.80;;;;;;4997611;28;20198;-47
2023/03/06 01:10:47;;;;;;;19.33;13.03;;;9.90;49.70;;;;;;5002489;28;20198;-48
2023/03/06 01:13:12;;;;;;;19.70;12.30;;;10.00;49.00;;;;;;4998164;28;20199;-49
2023/03/06 01:15:38;;;;;;;21.60;13.67;;;9.90;49.60;;;;;;5000124;28;20264;-48
2023/03/06 01:18:03;;;;;;;18.30;12.93;;;9.90;49.50;;;;;;5001866;28;20654;-52
2023/03/06 01:20:29;;;;;;;22.07;13.53;;;9.90;49.30;;;;;;5008717;28;20205;-50
2023/03/06 01:22:55;;;;;;;24.37;14.60;;;9.90;49.50;;;;;;5009766;28;20228;-49
2023/03/06 01:25:22;;;;;;;22.17;13.37;;;9.90;49.60;;;;;;4979351;28;20250;-49
2023/03/06 01:27:48;;;;;;;19.77;12.83;;;9.90;49.50;;;;;;4999152;28;20239;-50
2023/03/06 01:30:14;;;;;;;19.40;13.40;;;9.90;49.40;;;;;;4998298;28;20838;-50
2023/03/06 01:32:39;;;;;;;23.60;13.97;;;9.90;49.30;;;;;;5004569;28;20210;-49
2023/03/06 01:35:05;;;;;;;23.60;13.83;;;9.90;49.30;;;;;;5000186;28;20225;-51
2023/03/06 01:37:31;;;;;;;19.67;12.53;;;9.90;49.30;;;;;;5001939;28;20210;-48
2023/03/06 01:39:57;;;;;;;17.60;12.90;;;9.90;49.30;;;;;;5004529;28;20440;-48
2023/03/06 01:42:22;;;;;;;25.23;14.80;;;9.90;49.40;;;;;;5004194;28;20202;-47
2023/03/06 01:44:58;;;;;;;20.10;13.73;;;9.90;49.30;;;;;;5003997;28;20210;-51
2023/03/06 01:47:24;;;;;;;18.80;12.20;;;9.90;49.10;;;;;;5003719;28;20201;-49
2023/03/06 01:49:50;;;;;;;20.20;13.40;;;9.90;49.20;;;;;;5003060;28;20457;-48
2023/03/06 01:52:20;;;;;;;19.10;12.67;;;9.90;49.50;;;;;;4991712;28;20194;-48
2023/03/06 01:54:49;;;;;;;21.07;13.40;;;9.90;49.50;;;;;;5001597;28;20527;-48
2023/03/06 01:57:24;;;;;;;21.50;13.07;;;9.90;49.30;;;;;;5006367;28;20477;-47
2023/03/06 01:59:58;;;;;;;22.13;13.83;;;9.90;49.30;;;;;;5005153;28;20483;-48
2023/03/06 02:02:23;;;;;;;22.10;13.97;;;9.90;49.30;;;;;;5008702;28;20821;-48
2023/03/06 02:04:49;;;;;;;24.53;14.20;;;9.90;49.30;;;;;;5008831;28;20480;-47
2023/03/06 02:07:19;;;;;;;27.90;14.03;;;10.00;48.40;;;;;;5007119;28;20194;-48
2023/03/06 02:09:44;;;;;;;24.50;16.10;;;9.90;49.10;;;;;;5005038;28;20955;-48
2023/03/06 02:12:13;;;;;;;24.73;14.97;;;9.90;49.30;;;;;;5007202;28;20445;-50
2023/03/06 02:14:39;;;;;;;24.97;14.47;;;9.90;49.40;;;;;;5003821;28;20196;-48
2023/03/06 02:17:07;;;;;;;20.03;13.97;;;9.90;49.50;;;;;;5003901;28;22766;-48
2023/03/06 02:19:45;;;;;;;25.27;14.60;;;9.90;49.60;;;;;;5004089;28;20440;-48
2023/03/06 02:22:10;;;;;;;22.30;14.17;;;9.80;49.60;;;;;;5008486;28;20886;-50
2023/03/06 02:25:06;;;;;;;19.20;13.50;;;9.80;49.60;;;;;;5004197;28;20453;-48
2023/03/06 02:27:32;;;;;;;20.93;13.67;;;9.80;49.60;;;;;;5003226;28;20673;-51
2023/03/06 02:29:57;;;;;;;19.50;13.23;;;9.80;49.70;;;;;;5004318;28;20436;-49
2023/03/06 02:32:23;;;;;;;22.23;12.90;;;9.90;49.70;;;;;;4999774;28;20245;-49
2023/03/06 02:34:55;;;;;;;22.40;15.33;;;9.90;49.50;;;;;;5002606;28;20206;-48
2023/03/06 02:37:23;;;;;;;23.73;14.83;;;9.90;49.50;;;;;;5006180;28;20665;-48
2023/03/06 02:39:56;;;;;;;22.53;14.00;;;9.90;49.50;;;;;;5004743;28;20543;-51
2023/03/06 02:42:24;;;;;;;21.73;14.03;;;9.90;49.60;;;;;;4992954;28;20442;-49
2023/03/06 02:44:52;;;;;;;26.30;14.50;;;9.90;49.60;;;;;;4991965;28;20446;-48
2023/03/06 02:47:18;;;;;;;24.37;14.90;;;9.90;49.70;;;;;;4992184;28;21207;-49
2023/03/06 02:49:43;;;;;;;21.30;13.50;;;9.90;49.80;;;;;;4990572;28;20543;-48
2023/03/06 02:52:09;;;;;;;22.90;13.90;;;9.90;49.60;;;;;;4995994;28;20223;-49
2023/03/06 02:54:35;;;;;;;21.27;13.10;;;9.90;49.70;;;;;;5001351;28;20193;-48
2023/03/06 02:57:00;;;;;;;20.07;13.93;;;9.80;49.70;;;;;;5000431;28;20204;-49
2023/03/06 02:59:26;;;;;;;23.60;14.47;;;9.80;49.70;;;;;;4999754;28;20199;-53
2023/03/06 03:01:52;;;;;;;24.87;13.83;;;9.80;49.70;;;;;;4992855;28;20234;-50
2023/03/06 03:04:17;;;;;;;20.90;14.10;;;9.70;49.80;;;;;;5002490;28;21630;-52
2023/03/06 03:06:43;;;;;;;20.40;14.47;;;9.70;50.10;;;;;;4991131;28;20230;-48
2023/03/06 03:09:08;;;;;;;22.43;14.80;;;9.70;50.10;;;;;;4998461;28;20197;-48
2023/03/06 03:11:34;;;;;;;21.30;13.60;;;9.70;50.10;;;;;;4999578;28;20218;-48
2023/03/06 03:14:00;;;;;;;21.27;13.07;;;9.70;50.20;;;;;;4998306;28;20273;-48
2023/03/06 03:16:25;;;;;;;25.23;14.60;;;9.70;50.10;;;;;;5005863;28;20331;-50
2023/03/06 03:18:51;;;;;;;24.90;14.53;;;9.70;50.60;;;;;;5001641;28;20190;-48
2023/03/06 03:21:17;;;;;;;19.23;13.53;;;9.80;50.10;;;;;;5006477;28;20190;-49
2023/03/06 03:23:42;;;;;;;25.67;13.93;;;9.70;50.00;;;;;;5002097;28;20190;-48
2023/03/06 03:26:15;;;;;;;24.67;14.67;;;9.70;50.20;;;;;;5009782;28;20508;-48
2023/03/06 03:28:41;;;;;;;22.50;14.50;;;9.70;50.20;;;;;;5009229;28;20692;-48
2023/03/06 03:31:08;;;;;;;21.17;13.60;;;9.70;50.50;;;;;;5008071;28;20449;-48
2023/03/06 03:33:34;;;;;;;22.80;14.00;;;9.70;50.50;;;;;;5009601;28;20193;-49
2023/03/06 03:36:01;;;;;;;22.10;14.20;;;9.60;50.60;;;;;;5000892;28;20447;-50
2023/03/06 03:38:27;;;;;;;21.03;15.00;;;9.60;50.70;;;;;;5001552;28;20203;-49
2023/03/06 03:40:53;;;;;;;22.37;13.90;;;9.60;50.60;;;;;;5009310;28;20425;-49
2023/03/06 03:43:19;;;;;;;22.10;14.10;;;9.60;50.70;;;;;;5007328;28;20932;-50
2023/03/06 03:45:45;;;;;;;18.97;13.20;;;9.60;50.70;;;;;;5008969;28;20226;-48
2023/03/06 03:48:10;;;;;;;24.30;13.90;;;9.50;50.70;;;;;;5003830;28;20217;-50
2023/03/06 03:50:36;;;;;;;20.90;14.10;;;9.50;50.80;;;;;;4995399;28;20194;-48
2023/03/06 03:53:02;;;;;;;20.47;13.57;;;9.60;51.50;;;;;;5005113;28;20205;-49
2023/03/06 03:55:28;;;;;;;20.80;14.30;;;9.60;51.00;;;;;;5000981;28;20692;-49
2023/03/06 03:57:53;;;;;;;20.60;13.73;;;9.50;51.50;;;;;;5007605;28;20189;-49
2023/03/06 04:00:19;;;;;;;20.70;13.97;;;9.40;51.10;;;;;;5010587;28;20448;-53
2023/03/06 04:02:45;;;;;;;21.43;14.20;;;9.50;51.40;;;;;;5009338;28;20198;-52
2023/03/06 04:05:13;;;;;;;19.43;13.43;;;9.50;51.50;;;;;;5011280;28;20225;-48
2023/03/06 04:07:39;;;;;;;24.63;13.80;;;9.40;51.60;;;;;;5004892;28;20662;-49
2023/03/06 04:10:07;;;;;;;22.20;14.10;;;9.40;51.50;;;;;;5010739;28;21122;-49
2023/03/06 04:12:32;;;;;;;18.63;13.67;;;9.50;51.50;;;;;;5008293;28;20472;-49
2023/03/06 04:14:58;;;;;;;25.73;14.47;;;9.50;51.30;;;;;;5007643;28;20448;-51
2023/03/06 04:17:24;;;;;;;25.47;15.00;;;9.50;51.80;;;;;;5010563;28;20199;-52
2023/03/06 04:19:50;;;;;;;19.10;12.83;;;9.50;51.20;;;;;;5008790;28;20449;-52
2023/03/06 04:22:16;;;;;;;20.90;14.50;;;9.60;51.30;;;;;;5000219;28;20449;-51
2023/03/06 04:24:41;;;;;;;19.77;14.17;;;9.60;51.10;;;;;;4996858;28;20237;-53
2023/03/06 04:27:07;;;;;;;23.47;14.00;;;9.50;51.10;;;;;;4996633;28;20640;-53
2023/03/06 04:29:32;;;;;;;22.70;14.83;;;9.50;51.30;;;;;;5002807;28;20212;-50
2023/03/06 04:31:58;;;;;;;25.03;16.97;;;9.50;51.40;;;;;;5010546;28;20205;-49
2023/03/06 04:34:24;;;;;;;20.20;13.50;;;9.40;51.40;;;;;;5004365;28;20196;-51
2023/03/06 04:36:49;;;;;;;19.80;14.00;;;9.30;51.60;;;;;;4999715;28;20203;-52
2023/03/06 04:39:15;;;;;;;21.13;14.60;;;9.20;52.00;;;;;;5001686;28;20197;-53
2023/03/06 04:41:41;;;;;;;24.63;14.23;;;9.20;52.10;;;;;;5006280;28;20202;-51
2023/03/06 04:44:06;;;;;;;22.43;14.47;;;9.20;52.00;;;;;;5007419;28;20277;-53
2023/03/06 04:46:33;;;;;;;19.30;13.80;;;9.30;52.10;;;;;;5003751;28;20593;-52
2023/03/06 04:48:58;;;;;;;25.70;15.90;;;9.30;51.90;;;;;;4996415;28;20183;-50
2023/03/06 04:51:24;;;;;;;22.10;13.70;;;9.30;51.90;;;;;;5000453;28;20512;-51
2023/03/06 04:53:50;;;;;;;23.57;14.17;;;9.30;52.00;;;;;;5008268;28;20197;-53
2023/03/06 04:56:16;;;;;;;26.70;13.90;;;9.30;52.00;;;;;;4998867;28;20292;-49
2023/03/06 04:58:43;;;;;;;21.40;13.63;;;9.30;51.90;;;;;;4995653;28;20452;-49
2023/03/06 05:01:10;;;;;;;23.03;12.70;;;9.30;51.80;;;;;;5003079;28;20600;-52
2023/03/06 05:03:35;;;;;;;20.83;13.67;;;9.40;51.80;;;;;;4999873;28;20504;-48
2023/03/06 05:06:01;;;;;;;18.90;14.10;;;9.30;51.80;;;;;;5002399;28;20548;-48
2023/03/06 05:08:27;;;;;;;22.10;13.00;;;9.40;51.90;;;;;;4994404;28;20197;-50
2023/03/06 05:10:58;;;;;;;22.43;13.37;;;9.30;51.80;;;;;;5000811;28;20201;-48
2023/03/06 05:13:24;;;;;;;22.67;14.53;;;9.40;51.80;;;;;;4998140;28;20202;-49
2023/03/06 05:15:49;;;;;;;21.57;13.30;;;9.40;51.70;;;;;;4996696;28;20441;-48
2023/03/06 05:18:15;;;;;;;23.27;14.03;;;9.40;51.70;;;;;;4998419;28;20563;-48
2023/03/06 05:20:41;;;;;;;23.87;15.47;;;9.40;51.70;;;;;;5006348;28;20190;-48
2023/03/06 05:23:07;;;;;;;24.83;15.90;;;9.40;51.70;;;;;;5008708;28;20584;-47
2023/03/06 05:25:32;;;;;;;23.03;14.77;;;9.40;51.90;;;;;;4993215;28;20493;-48
2023/03/06 05:27:58;;;;;;;23.37;15.60;;;9.30;51.90;;;;;;4994912;28;20662;-50
2023/03/06 05:30:24;;;;;;;29.43;16.77;;;9.30;52.10;;;;;;4995814;28;20209;-48
2023/03/06 05:32:50;;;;;;;26.30;17.37;;;9.30;52.10;;;;;;4992064;28;20202;-48
2023/03/06 05:35:20;;;;;;;23.30;16.73;;;9.30;52.20;;;;;;5000135;28;20931;-49
2023/03/06 05:37:46;;;;;;;25.57;18.20;;;9.30;52.30;;;;;;5003379;28;20198;-48
2023/03/06 05:40:13;;;;;;;21.03;14.70;;;9.30;51.90;;;;;;5002295;28;20937;-49
2023/03/06 05:42:39;;;;;;;26.30;15.10;;;9.30;51.90;;;;;;5002187;28;20452;-49
2023/03/06 05:45:05;;;;;;;22.93;15.47;;;9.30;52.00;;;;;;5004367;28;20496;-52
2023/03/06 05:47:31;;;;;;;23.40;15.57;;;9.30;52.10;;;;;;5007694;28;20198;-50
2023/03/06 05:49:57;;;;;;;22.63;14.83;;;9.30;52.20;;;;;;5008306;28;20560;-48
2023/03/06 05:52:23;;;;;;;24.70;14.47;;;9.30;52.20;;;;;;5002777;28;20535;-48
2023/03/06 05:54:50;;;;;;;19.67;13.60;;;9.30;52.10;;;;;;5002504;28;20198;-52
2023/03/06 05:57:21;;;;;;;24.40;14.60;;;9.30;52.10;;;;;;5003824;28;20201;-50
2023/03/06 05:59:48;;;;;;;21.70;14.03;;;9.30;52.10;;;;;;5001112;28;20454;-50
2023/03/06 06:02:13;;;;;;;22.17;14.87;;;9.30;52.10;;;;;;5004032;28;20519;-51
2023/03/06 06:04:39;;;;;;;25.73;15.07;;;9.30;52.10;;;;;;4987825;28;20563;-52
2023/03/06 06:07:05;;;;;;;20.53;13.70;;;9.30;52.30;;;;;;5007342;28;20221;-49
2023/03/06 06:09:31;;;;;;;25.90;15.70;;;9.30;52.20;;;;;;4996324;28;20631;-52
2023/03/06 06:12:00;;;;;;;22.30;14.70;;;9.30;52.20;;;;;;5008861;28;20205;-51
2023/03/06 06:14:27;;;;;;;18.90;14.00;;;9.30;52.10;;;;;;5010832;28;20808;-48
2023/03/06 06:16:53;;;;;;;21.70;14.10;;;9.40;52.30;;;;;;5009624;28;20798;-49
2023/03/06 06:19:20;;;;;;;23.90;15.00;;;9.30;52.10;;;;;;5000411;28;20440;-49
2023/03/06 06:21:47;;;;;;;18.07;12.53;;;9.30;52.10;;;;;;5001420;28;20444;-51
2023/03/06 06:24:14;;;;;;;22.07;14.67;;;9.40;53.80;;;;;;5010178;28;20966;-48
2023/03/06 06:26:41;;;;;;;24.00;13.97;;;9.70;54.40;;;;;;5002490;28;20922;-52
2023/03/06 06:29:06;;;;;;;16.97;12.00;;;10.00;53.50;;;;;;5001443;28;20445;-47
2023/03/06 06:31:32;;;;;;;20.17;14.37;;;10.30;52.30;;;;;;5007183;28;20449;-49
2023/03/06 06:33:58;;;;;;;21.10;14.10;;;10.50;52.10;;;;;;5003401;28;20221;-49
2023/03/06 06:36:23;;;;;;;24.10;14.07;;;10.70;50.70;;;;;;4993889;28;20198;-51
2023/03/06 06:38:49;;;;;;;26.50;14.33;;;10.90;50.60;;;;;;4993335;28;20289;-50
2023/03/06 06:41:15;;;;;;;20.40;13.97;;;11.10;49.70;;;;;;5005608;28;20255;-48
2023/03/06 06:43:41;;;;;;;19.13;13.47;;;11.10;49.10;;;;;;5004018;28;20928;-48
2023/03/06 06:46:06;;;;;;;21.57;14.57;;;11.20;49.00;;;;;;5008353;28;20539;-48
2023/03/06 06:48:32;;;;;;;22.60;14.97;;;11.30;48.70;;;;;;5009178;28;20194;-52
2023/03/06 06:50:59;;;;;;;22.33;15.00;;;11.30;48.60;;;;;;5005443;28;20540;-48
2023/03/06 06:53:25;;;;;;;24.97;14.97;;;11.30;47.90;;;;;;5003815;28;20206;-48
2023/03/06 06:55:50;;;;;;;19.77;13.70;;;11.30;47.70;;;;;;5005883;28;20498;-51
2023/03/06 06:58:16;;;;;;;21.50;15.47;;;11.30;47.80;;;;;;5008776;28;20429;-49
2023/03/06 07:00:42;;;;;;;23.03;14.93;;;11.30;48.10;;;;;;5005009;28;20206;-48
2023/03/06 07:03:11;;;;;;;21.00;14.23;;;11.40;48.00;;;;;;5008867;28;20236;-47
2023/03/06 07:05:36;;;;;;;21.17;14.03;;;11.40;47.70;;;;;;5008406;28;20232;-47
2023/03/06 07:08:02;;;;;;;18.87;15.03;;;11.50;47.60;;;;;;5006485;28;20453;-47
2023/03/06 07:10:28;;;;;;;21.37;15.30;;;11.50;47.60;;;;;;5009155;28;20260;-52
2023/03/06 07:12:55;;;;;;;21.20;14.80;;;11.60;47.20;;;;;;5007499;28;20198;-51
2023/03/06 07:15:21;;;;;;;21.90;14.50;;;11.60;47.10;;;;;;5003386;28;20197;-51
2023/03/06 07:17:47;;;;;;;21.90;14.60;;;11.70;46.90;;;;;;5005856;28;21235;-47
2023/03/06 07:20:13;;;;;;;20.37;14.83;;;11.70;46.70;;;;;;5001689;28;20441;-47
2023/03/06 07:22:39;;;;;;;21.97;13.90;;;11.80;46.70;;;;;;4981711;28;20209;-47
2023/03/06 07:25:05;;;;;;;28.33;15.57;;;11.80;46.50;;;;;;5003097;28;20210;-50
2023/03/06 07:27:31;;;;;;;20.20;14.70;;;11.80;46.30;;;;;;5008816;28;20281;-47
2023/03/06 07:29:57;;;;;;;23.80;15.40;;;11.70;46.00;;;;;;5008171;28;20571;-48
2023/03/06 07:32:22;;;;;;;21.80;15.10;;;11.60;46.10;;;;;;5002810;28;20442;-48
2023/03/06 07:34:48;;;;;;;19.63;13.70;;;11.60;46.10;;;;;;5008626;28;20202;-50
2023/03/06 07:37:14;;;;;;;21.83;13.97;;;11.50;46.10;;;;;;5013705;28;20548;-48
2023/03/06 07:39:39;;;;;;;20.40;14.20;;;11.60;46.50;;;;;;5010871;28;20278;-47
2023/03/06 07:42:06;;;;;;;16.90;13.40;;;11.60;46.50;;;;;;5004920;28;20193;-47
2023/03/06 07:44:36;;;;;;;23.10;14.23;;;11.70;46.50;;;;;;5011400;28;20549;-51
2023/03/06 07:47:02;;;;;;;20.23;12.60;;;11.80;46.10;;;;;;5009655;28;20499;-47
2023/03/06 07:49:28;;;;;;;25.27;14.87;;;11.90;45.90;;;;;;5009784;28;20936;-48
2023/03/06 07:51:53;;;;;;;17.40;12.83;;;12.00;45.50;;;;;;5009214;28;20447;-47
2023/03/06 07:54:19;;;;;;;19.97;13.80;;;12.10;44.90;;;;;;5011053;28;20203;-49
2023/03/06 07:56:44;;;;;;;19.53;13.40;;;12.20;44.50;;;;;;5008597;28;20218;-47
2023/03/06 07:59:10;;;;;;;15.93;12.77;;;12.20;44.60;;;;;;5010123;28;20223;-47
2023/03/06 08:01:38;;;;;;;20.53;12.90;;;12.30;44.50;;;;;;5006919;28;20209;-47
2023/03/06 08:04:04;;;;;;;17.87;14.07;;;12.40;44.30;;;;;;5001114;28;20507;-51
2023/03/06 08:06:30;;;;;;;16.83;12.90;;;12.40;44.20;;;;;;5011609;28;20879;-48
2023/03/06 08:08:56;;;;;;;19.33;12.90;;;12.50;44.10;;;;;;5013261;28;20599;-51
2023/03/06 08:11:24;;;;;;;20.93;11.97;;;12.50;44.00;;;;;;5013269;28;20440;-50
2023/03/06 08:13:51;;;;;;;16.13;11.47;;;12.60;43.70;;;;;;5012033;28;20441;-51
2023/03/06 08:16:20;;;;;;;22.57;13.70;;;12.70;43.40;;;;;;5002751;28;20460;-47
2023/03/06 08:18:45;;;;;;;17.33;12.20;;;12.70;43.40;;;;;;5008393;28;20436;-48
2023/03/06 08:21:13;;;;;;;17.13;13.63;;;12.70;43.40;;;;;;5013889;28;20428;-47
2023/03/06 08:23:40;;;;;;;21.57;12.87;;;12.70;43.40;;;;;;5010930;28;20194;-47
2023/03/06 08:26:09;;;;;;;20.30;12.50;;;12.80;43.30;;;;;;4994739;28;20485;-51
2023/03/06 08:28:34;;;;;;;18.60;11.80;;;12.80;43.40;;;;;;5004202;28;21002;-48
2023/03/06 08:31:33;;;;;;;16.17;11.17;;;12.80;43.00;;;;;;5013867;28;20448;-49
2023/03/06 08:34:02;;;;;;;15.20;11.30;;;12.80;42.50;;;;;;5009685;28;20202;-48
2023/03/06 08:36:28;;;;;;;11.87;8.60;;;12.50;42.00;;;;;;5012430;28;20425;-48
2023/03/06 08:38:54;;;;;;;11.13;8.00;;;12.20;41.80;;;;;;5012762;28;20440;-49
2023/03/06 08:41:20;;;;;;;10.57;7.73;;;11.90;42.30;;;;;;5013401;28;20883;-48
2023/03/06 08:43:47;;;;;;;10.53;8.30;;;11.80;42.20;;;;;;5013486;28;20429;-47
2023/03/06 08:46:12;;;;;;;10.33;6.93;;;11.40;42.50;;;;;;5011511;28;20514;-47
2023/03/06 08:48:38;;;;;;;11.63;6.43;;;11.30;42.80;;;;;;5003114;28;20441;-47
2023/03/06 08:51:04;;;;;;;10.40;7.33;;;11.20;42.90;;;;;;5006878;28;20197;-47
2023/03/06 08:53:30;;;;;;;8.03;6.30;;;11.00;42.90;;;;;;5008719;28;20445;-47
2023/03/06 08:55:56;;;;;;;11.80;7.90;;;10.80;43.50;;;;;;5011644;28;20284;-48
2023/03/06 08:58:21;;;;;;;7.83;6.60;;;10.80;43.60;;;;;;5004658;28;21243;-47
2023/03/06 09:00:47;;;;;;;11.90;6.60;;;11.00;43.50;;;;;;5004425;28;20928;-50
2023/03/06 09:03:13;;;;;;;7.93;6.50;;;11.10;43.70;;;;;;5009617;28;20265;-48
2023/03/06 09:05:39;;;;;;;9.30;6.80;;;11.00;43.50;;;;;;5008259;28;20580;-47
2023/03/06 09:08:05;;;;;;;9.43;6.50;;;11.00;43.40;;;;;;4996788;28;20202;-48
2023/03/06 09:10:31;;;;;;;7.57;6.27;;;10.60;43.50;;;;;;5009685;28;20440;-49
2023/03/06 09:12:56;;;;;;;7.90;6.03;;;10.60;44.00;;;;;;5006453;28;20232;-50
2023/03/06 09:15:23;;;;;;;9.00;6.60;;;10.80;44.10;;;;;;4999547;28;20204;-48
2023/03/06 09:17:49;;;;;;;8.30;6.70;;;10.60;44.20;;;;;;5001430;28;20218;-47
2023/03/06 09:20:15;;;;;;;9.03;6.30;;;10.50;44.60;;;;;;5007258;28;20455;-48
2023/03/06 09:22:41;;;;;;;9.33;6.67;;;10.10;44.90;;;;;;5007483;28;20429;-47
2023/03/06 09:25:08;;;;;;;9.80;6.17;;;10.30;45.40;;;;;;5007540;28;20451;-47
2023/03/06 09:27:34;;;;;;;7.13;5.60;;;10.40;45.30;;;;;;5003335;28;20540;-48
2023/03/06 09:30:00;;;;;;;8.33;6.00;;;10.50;45.00;;;;;;5002277;28;20528;-48
2023/03/06 09:32:26;;;;;;;8.57;6.47;;;10.50;45.00;;;;;;5004287;28;20449;-49
2023/03/06 09:34:52;;;;;;;10.27;5.97;;;9.90;45.60;;;;;;4997496;28;20949;-47
2023/03/06 09:37:18;;;;;;;6.67;5.60;;;9.70;46.50;;;;;;4995745;28;20237;-51
2023/03/06 09:39:43;;;;;;;7.93;6.10;;;9.90;46.50;;;;;;5002782;28;20587;-48
2023/03/06 09:42:22;;;;;;;11.17;5.63;;;9.80;46.60;;;;;;4987414;28;20449;-48
2023/03/06 09:44:57;;;;;;;8.10;6.30;;;9.90;47.00;;;;;;5006428;28;20213;-48
2023/03/06 09:48:11;;;;;;;9.67;6.47;;;9.80;47.10;;;;;;5003726;28;20453;-48
2023/03/06 09:51:11;;;;;;;12.20;6.60;;;9.80;47.60;;;;;;4988335;28;20527;-50
2023/03/06 09:53:56;;;;;;;8.10;5.77;;;9.70;47.90;;;;;;4980567;28;20472;-50
2023/03/06 09:56:29;;;;;;;9.10;6.50;;;9.80;47.70;;;;;;5006943;28;20460;-48
2023/03/06 09:59:04;;;;;;;8.83;6.30;;;10.10;46.60;;;;;;5004970;28;20455;-50
2023/03/06 10:01:34;;;;;;;7.87;5.80;;;10.10;46.30;;;;;;5003685;28;20452;-54
2023/03/06 10:04:18;;;;;;;7.50;6.07;;;9.90;47.20;;;;;;4984701;28;20477;-50
2023/03/06 10:06:49;;;;;;;9.57;6.13;;;10.00;46.70;;;;;;5001906;28;20578;-48
2023/03/06 10:09:25;;;;;;;7.93;6.00;;;10.20;46.70;;;;;;4993447;28;20438;-48
2023/03/06 10:12:05;;;;;;;8.43;5.93;;;10.30;45.90;;;;;;4996519;28;20453;-47
2023/03/06 10:14:41;;;;;;;8.57;6.30;;;10.00;46.00;;;;;;4996851;28;20442;-48
2023/03/06 10:17:21;;;;;;;9.97;6.20;;;9.90;47.50;;;;;;4999547;28;20453;-55
2023/03/06 10:19:47;;;;;;;7.40;5.33;;;10.10;46.50;;;;;;4988798;28;20460;-56
2023/03/06 10:22:25;;;;;;;10.73;7.07;;;10.10;46.40;;;;;;4987345;28;20469;-51
2023/03/06 10:25:21;;;;;;;7.53;5.83;;;10.10;46.70;;;;;;5006234;28;20480;-47
2023/03/06 10:27:49;;;;;;;7.53;5.93;;;10.30;46.70;;;;;;4997085;28;20895;-48
2023/03/06 10:30:54;;;;;;;9.27;7.07;;;10.40;46.20;;;;;;5007618;28;20440;-49
2023/03/06 10:33:45;;;;;;;10.60;6.90;;;10.40;46.00;;;;;;4987131;28;20457;-50
2023/03/06 10:36:15;;;;;;;9.30;6.63;;;10.20;45.90;;;;;;4998824;28;20821;-52
2023/03/06 10:38:43;;;;;;;8.90;6.50;;;10.10;46.20;;;;;;5004285;28;20973;-53
2023/03/06 10:41:11;;;;;;;7.70;6.23;;;10.20;46.10;;;;;;5000325;28;21142;-52
2023/03/06 10:44:08;;;;;;;10.00;7.10;;;10.20;46.20;;;;;;5001621;28;20445;-49
2023/03/06 10:46:38;;;;;;;10.53;6.60;;;10.20;46.00;;;;;;5004722;28;20504;-52
2023/03/06 10:49:21;;;;;;;9.80;7.33;;;10.20;45.90;;;;;;4980216;28;20469;-48
2023/03/06 10:52:12;;;;;;;8.90;6.90;;;10.40;46.30;;;;;;4984209;28;20485;-52
2023/03/06 10:54:42;;;;;;;8.60;6.40;;;10.50;45.80;;;;;;4978593;28;21827;-53
2023/03/06 10:57:26;;;;;;;9.10;6.50;;;10.70;45.60;;;;;;4982199;28;20439;-52
2023/03/06 10:59:57;;;;;;;8.20;6.60;;;10.60;45.60;;;;;;4986920;28;20475;-53
2023/03/06 11:02:30;;;;;;;6.83;5.73;;;10.60;45.60;;;;;;4981627;28;20500;-48
2023/03/06 11:04:59;;;;;;;7.40;5.90;;;10.70;45.10;;;;;;4945069;29;20825;-49
2023/03/06 11:07:33;;;;;;;11.50;6.77;;;10.80;44.80;;;;;;4946545;28;21144;-53
2023/03/06 11:10:19;;;;;;;9.77;7.60;;;10.70;44.50;;;;;;4949764;28;20443;-51
2023/03/06 11:13:19;;;;;;;7.40;6.00;;;10.50;44.40;;;;;;4944197;28;20477;-52
2023/03/06 11:15:58;;;;;;;8.77;6.97;;;10.50;44.80;;;;;;4942300;28;20466;-54
2023/03/06 11:18:38;;;;;;;6.20;5.60;;;10.50;45.00;;;;;;4932970;29;20436;-48
2023/03/06 11:21:26;;;;;;;10.80;7.00;;;10.80;44.30;;;;;;4946400;28;20586;-47
2023/03/06 11:23:54;;;;;;;6.40;5.67;;;10.40;44.00;;;;;;4951319;28;20849;-49
2023/03/06 11:26:33;;;;;;;8.33;6.17;;;10.40;43.60;;;;;;4943713;28;20530;-47
2023/03/06 11:29:17;;;;;;;6.77;5.87;;;10.30;43.80;;;;;;4947360;28;20439;-48
2023/03/06 11:31:51;;;;;;;8.80;5.40;;;10.40;44.00;;;;;;4942470;28;20470;-47
2023/03/06 11:34:42;;;;;;;8.60;6.80;;;10.60;43.80;;;;;;4948556;28;20623;-47
2023/03/06 11:37:22;;;;;;;6.80;5.50;;;10.60;43.30;;;;;;4942928;28;20446;-47
2023/03/06 11:40:17;;;;;;;7.77;6.70;;;10.80;43.20;;;;;;4945782;28;20471;-48
2023/03/06 11:42:58;;;;;;;8.10;6.37;;;10.90;42.70;;;;;;4950463;28;20447;-47
2023/03/06 11:45:45;;;;;;;8.53;6.60;;;10.80;42.60;;;;;;4948968;28;20544;-47
2023/03/06 11:48:13;;;;;;;8.00;6.00;;;10.90;43.00;;;;;;4944538;28;20493;-47
2023/03/06 11:50:48;;;;;;;9.17;6.80;;;10.90;42.70;;;;;;4945410;28;20563;-48
2023/03/06 11:53:22;;;;;;;7.20;5.77;;;10.90;42.70;;;;;;4941325;28;20451;-49
2023/03/06 11:56:04;;;;;;;8.43;7.10;;;11.20;42.40;;;;;;4945177;28;21190;-49
2023/03/06 11:58:49;;;;;;;8.33;6.80;;;11.10;41.20;;;;;;4941854;28;20459;-52
2023/03/06 12:01:24;;;;;;;8.30;6.33;;;11.20;41.60;;;;;;4944612;28;20459;-49
2023/03/06 12:04:27;;;;;;;7.67;6.40;;;11.40;41.70;;;;;;4962594;28;20477;-51
2023/03/06 12:07:26;;;;;;;7.23;5.80;;;11.30;41.10;;;;;;4982431;28;21056;-50
2023/03/06 12:10:19;;;;;;;8.97;6.77;;;11.20;41.60;;;;;;4984730;28;20947;-50
2023/03/06 12:13:13;;;;;;;8.17;6.70;;;11.40;42.00;;;;;;4986034;28;20537;-47
2023/03/06 12:15:42;;;;;;;9.33;7.17;;;11.30;41.70;;;;;;4984373;28;20535;-50
2023/03/06 12:18:47;;;;;;;7.33;6.40;;;11.20;41.90;;;;;;4986952;28;20851;-50
2023/03/06 12:21:24;;;;;;;11.70;8.70;;;11.20;42.10;;;;;;4977369;28;20477;-52
2023/03/06 12:24:15;;;;;;;13.53;9.90;;;11.20;42.00;;;;;;4974616;28;20445;-53
2023/03/06 12:26:49;;;;;;;9.50;7.70;;;11.00;41.80;;;;;;4985030;28;20481;-51
2023/03/06 12:29:22;;;;;;;8.57;6.53;;;11.20;42.20;;;;;;4994106;28;20955;-53
2023/03/06 12:31:50;;;;;;;9.27;6.30;;;11.40;42.20;;;;;;4990510;28;20477;-52
2023/03/06 12:34:35;;;;;;;9.10;7.53;;;11.50;41.60;;;;;;4992890;28;20448;-52
2023/03/06 12:37:15;;;;;;;9.17;7.20;;;11.70;41.00;;;;;;4986309;28;20540;-52
2023/03/06 12:39:59;;;;;;;9.87;6.83;;;11.20;41.10;;;;;;4991935;28;20529;-53
2023/03/06 12:42:33;;;;;;;8.90;6.17;;;11.20;42.00;;;;;;4991969;28;20489;-53
2023/03/06 12:45:31;;;;;;;10.77;6.47;;;11.30;42.00;;;;;;4970920;28;20957;-51
2023/03/06 12:47:58;;;;;;;7.97;6.50;;;11.10;41.30;;;;;;4963133;28;20918;-51
2023/03/06 12:50:27;;;;;;;11.93;5.90;;;11.00;41.60;;;;;;4982197;28;20805;-52